Time;durP1;ratioP1;P1;durP2;ratioP2;P2;SDS_P1;SDS_P2;PMS_P1;PMS_P2;Temp;Humidity;BMP_temperature;BMP_pressure;BME280_temperature;BME280_humidity;BME280_pressure;Samples;Min_cycle;Max_cycle;Signal;HPM_P1;HPM_P2
2022/05/12 00:00:12;;;;;;;30.60;6.78;;;;;;;10.41;100.00;99961.56;4833740;29;20550;-79
2022/05/12 00:02:37;;;;;;;33.13;6.57;;;;;;;10.33;100.00;99939.28;4880685;29;20033;-79
2022/05/12 00:05:05;;;;;;;25.02;5.90;;;;;;;9.86;100.00;99865.34;4880487;29;20036;-78
2022/05/12 00:07:31;;;;;;;24.90;5.30;;;;;;;10.41;100.00;99948.94;4864452;29;20025;-78
2022/05/12 00:09:57;;;;;;;29.20;5.95;;;;;;;10.37;100.00;99933.47;4880237;29;20056;-79
2022/05/12 00:12:23;;;;;;;24.23;5.55;;;;;;;10.42;100.00;99947.06;4864130;29;20489;-78
2022/05/12 00:14:48;;;;;;;30.77;6.13;;;;;;;10.44;100.00;99950.38;4880337;29;20147;-78
2022/05/12 00:17:14;;;;;;;29.17;6.10;;;;;;;10.41;100.00;99950.78;4862977;29;20372;-78
2022/05/12 00:19:40;;;;;;;27.90;5.63;;;;;;;10.41;100.00;99938.16;4864775;29;20060;-79
2022/05/12 00:22:05;;;;;;;30.15;6.10;;;;;;;10.26;100.00;99906.22;4878999;29;20029;-78
2022/05/12 00:24:30;;;;;;;25.27;6.35;;;;;;;10.05;100.00;99877.00;4864529;29;20093;-79
2022/05/12 00:26:56;;;;;;;29.23;6.07;;;;;;;10.36;100.00;99932.59;4863781;29;20033;-79
2022/05/12 00:29:21;;;;;;;26.73;6.13;;;;;;;10.34;100.00;99929.34;4879905;29;20033;-79
2022/05/12 00:31:48;;;;;;;32.72;6.47;;;;;;;10.23;100.00;99913.84;4862906;29;20490;-79
2022/05/12 00:34:15;;;;;;;29.10;6.22;;;;;;;10.32;100.00;99928.72;4879878;29;20049;-78
2022/05/12 00:36:41;;;;;;;29.05;6.13;;;;;;;10.28;100.00;99930.22;4877945;29;20029;-78
2022/05/12 00:39:06;;;;;;;29.95;5.43;;;;;;;10.30;100.00;99946.97;4862291;29;20097;-79
2022/05/12 00:41:32;;;;;;;25.85;6.07;;;;;;;10.25;100.00;99941.38;4845356;29;20033;-78
2022/05/12 00:44:02;;;;;;;27.63;5.72;;;;;;;10.27;100.00;99950.06;4864111;29;20036;-78
2022/05/12 00:46:35;;;;;;;29.83;5.93;;;;;;;10.01;100.00;99908.03;4863479;29;20380;-78
2022/05/12 00:49:33;;;;;;;26.60;5.95;;;;;;;10.13;100.00;99933.16;4879219;29;20404;-78
2022/05/12 00:52:06;;;;;;;23.98;5.43;;;;;;;10.19;100.00;99953.81;4863091;29;20101;-78
2022/05/12 00:55:10;;;;;;;31.02;6.45;;;;;;;10.14;100.00;99950.97;4879919;29;20064;-78
2022/05/12 00:57:40;;;;;;;22.30;5.18;;;;;;;10.12;100.00;99947.66;4887017;29;20067;-78
2022/05/12 01:00:12;;;;;;;26.58;5.60;;;;;;;10.16;100.00;99956.09;4878119;29;20033;-78
2022/05/12 01:02:38;;;;;;;30.98;5.72;;;;;;;10.10;100.00;99955.13;4882699;29;20025;-78
2022/05/12 01:05:06;;;;;;;28.77;5.60;;;;;;;10.23;100.00;99964.94;4880265;29;20103;-78
2022/05/12 01:07:32;;;;;;;32.80;6.20;;;;;;;10.24;100.00;99972.00;4862604;29;20154;-78
2022/05/12 01:09:58;;;;;;;32.03;7.00;;;;;;;10.25;100.00;99984.38;4884751;29;20044;-78
2022/05/12 01:12:24;;;;;;;25.30;5.45;;;;;;;10.19;100.00;99956.50;4876444;29;20029;-78
2022/05/12 01:14:49;;;;;;;31.38;5.35;;;;;;;10.30;100.00;99969.28;4878692;29;20470;-78
2022/05/12 01:17:16;;;;;;;21.73;5.05;;;;;;;10.34;100.00;99970.50;4866443;29;20036;-78
2022/05/12 01:19:42;;;;;;;30.45;6.22;;;;;;;10.17;100.00;99947.84;4898239;29;20519;-78
2022/05/12 01:22:26;;;;;;;21.80;5.10;;;;;;;10.40;100.00;99982.25;4881870;29;20111;-78
2022/05/12 01:24:51;;;;;;;25.15;5.35;;;;;;;10.14;100.00;99942.06;4896274;29;20024;-78
2022/05/12 01:27:20;;;;;;;29.20;6.22;;;;;;;10.27;100.00;99961.66;4866677;29;20389;-78
2022/05/12 01:29:49;;;;;;;22.98;5.35;;;;;;;10.44;100.00;99988.00;4866508;29;20428;-78
2022/05/12 01:32:15;;;;;;;27.98;5.90;;;;;;;10.40;100.00;99982.25;4882558;29;20040;-78
2022/05/12 01:34:40;;;;;;;25.85;5.68;;;;;;;10.22;100.00;99948.00;4898371;29;20034;-78
2022/05/12 01:37:06;;;;;;;24.92;4.70;;;;;;;10.43;100.00;99991.72;4882238;29;20113;-78
2022/05/12 01:39:35;;;;;;;29.23;5.75;;;;;;;10.31;100.00;99970.09;4880398;29;20084;-78
2022/05/12 01:42:04;;;;;;;25.05;4.28;;;;;;;10.42;100.00;99998.16;4866345;29;20036;-78
2022/05/12 01:44:30;;;;;;;23.42;4.55;;;;;;;10.40;100.00;99997.53;4897748;29;20083;-78
2022/05/12 01:46:57;;;;;;;22.45;4.68;;;;;;;10.40;100.00;99998.38;4880490;29;20465;-78
2022/05/12 01:49:22;;;;;;;23.40;4.50;;;;;;;10.06;100.00;99945.81;4897837;29;20040;-78
2022/05/12 01:51:52;;;;;;;24.35;4.18;;;;;;;9.99;100.00;99939.69;4896903;29;20029;-78
2022/05/12 01:54:17;;;;;;;24.42;4.13;;;;;;;10.37;100.00;99992.63;4882270;29;20048;-78
2022/05/12 01:56:43;;;;;;;19.70;3.65;;;;;;;10.39;100.00;99995.91;4880423;29;20036;-78
2022/05/12 01:59:08;;;;;;;22.77;4.10;;;;;;;10.21;100.00;99967.88;4865487;29;20594;-79
2022/05/12 02:01:33;;;;;;;26.08;4.40;;;;;;;10.35;100.00;99988.25;4865626;29;20064;-77
2022/05/12 02:04:01;;;;;;;20.88;3.70;;;;;;;10.24;100.00;99982.75;4866013;29;20025;-78
2022/05/12 02:06:27;;;;;;;23.33;4.07;;;;;;;10.25;100.00;99993.25;4896505;29;20025;-78
2022/05/12 02:08:52;;;;;;;26.17;4.78;;;;;;;10.05;100.00;99963.00;4881985;29;20033;-78
2022/05/12 02:11:17;;;;;;;21.70;4.18;;;;;;;10.21;100.00;99989.38;4870862;29;20067;-78
2022/05/12 02:13:44;;;;;;;26.13;4.18;;;;;;;9.95;100.00;99951.91;4859575;29;20024;-78
2022/05/12 02:16:10;;;;;;;22.40;4.68;;;;;;;10.18;100.00;99978.22;4900642;29;20125;-78
2022/05/12 02:18:35;;;;;;;16.10;3.58;;;;;;;10.15;100.00;99984.84;4868975;29;20032;-77
2022/05/12 02:21:00;;;;;;;22.45;4.13;;;;;;;10.16;100.00;100001.81;4899908;29;20036;-78
2022/05/12 02:23:26;;;;;;;20.05;3.88;;;;;;;10.12;100.00;99990.66;4883910;29;20069;-77
2022/05/12 02:25:51;;;;;;;18.05;3.80;;;;;;;9.93;100.00;99962.03;4884481;29;20335;-78
2022/05/12 02:28:17;;;;;;;18.88;4.18;;;;;;;9.57;100.00;99907.88;4883250;29;20442;-78
2022/05/12 02:30:43;;;;;;;26.17;4.18;;;;;;;9.93;100.00;99964.72;4866715;29;20100;-78
2022/05/12 02:33:09;;;;;;;26.77;4.25;;;;;;;10.04;100.00;99988.25;4883921;29;20036;-78
2022/05/12 02:35:35;;;;;;;20.50;3.78;;;;;;;9.10;100.00;99844.69;4869039;29;20032;-78
2022/05/12 02:38:01;;;;;;;30.58;4.68;;;;;;;10.03;100.00;100000.88;4883933;29;20099;-77
2022/05/12 02:40:28;;;;;;;25.27;3.88;;;;;;;10.00;100.00;100003.97;4884420;29;20044;-77
2022/05/12 02:42:55;;;;;;;22.40;3.88;;;;;;;10.02;100.00;100009.13;4868442;29;20036;-78
2022/05/12 02:45:20;;;;;;;20.98;4.10;;;;;;;10.05;100.00;100006.00;4901092;29;20039;-78
2022/05/12 02:47:46;;;;;;;21.83;4.65;;;;;;;10.06;100.00;100003.09;4900553;29;20032;-78
2022/05/12 02:50:13;;;;;;;21.25;3.65;;;;;;;9.63;100.00;99935.72;4868969;29;20124;-78
2022/05/12 02:52:39;;;;;;;24.92;3.72;;;;;;;10.09;100.00;100012.59;4883950;29;20024;-77
2022/05/12 02:55:06;;;;;;;21.25;3.75;;;;;;;9.75;100.00;99952.00;4883431;29;20088;-78
2022/05/12 02:57:33;;;;;;;17.02;3.05;;;;;;;9.94;100.00;99985.19;4900206;29;20032;-77
2022/05/12 03:00:00;;;;;;;15.32;3.55;;;;;;;10.17;100.00;100020.41;4900448;29;20032;-78
2022/05/12 03:02:26;;;;;;;12.82;2.45;;;;;;;10.02;100.00;99993.81;4889369;29;20029;-78
2022/05/12 03:04:51;;;;;;;21.80;3.40;;;;;;;10.18;100.00;100011.31;4883650;29;20021;-77
2022/05/12 03:07:17;;;;;;;24.98;3.55;;;;;;;9.98;100.00;99978.34;4867587;29;20060;-78
2022/05/12 03:09:43;;;;;;;16.67;2.85;;;;;;;10.26;100.00;100021.81;4900798;29;20072;-77
2022/05/12 03:12:08;;;;;;;22.40;4.10;;;;;;;10.15;100.00;99992.09;4867555;29;20048;-77
2022/05/12 03:14:34;;;;;;;18.25;2.97;;;;;;;10.35;100.00;100017.84;4864175;29;20127;-78
2022/05/12 03:16:59;;;;;;;12.95;2.83;;;;;;;10.35;100.00;100020.53;4865952;29;20053;-77
2022/05/12 03:19:25;;;;;;;19.50;2.95;;;;;;;10.14;100.00;99988.59;4871258;29;20123;-77
2022/05/12 03:21:57;;;;;;;18.00;3.25;;;;;;;10.30;100.00;100011.50;4887242;29;20032;-77
2022/05/12 03:24:22;;;;;;;17.88;3.10;;;;;;;10.34;100.00;100015.38;4890029;29;20051;-78
2022/05/12 03:26:49;;;;;;;17.38;2.92;;;;;;;10.29;100.00;100015.19;4883444;29;20107;-78
2022/05/12 03:29:14;;;;;;;21.73;3.75;;;;;;;9.85;100.00;99942.44;4868418;29;20072;-77
2022/05/12 03:31:40;;;;;;;19.52;2.65;;;;;;;10.28;100.00;100014.38;4867227;29;20352;-77
2022/05/12 03:34:06;;;;;;;24.80;2.65;;;;;;;10.28;100.00;100030.50;4868799;29;20039;-78
2022/05/12 03:36:35;;;;;;;15.25;2.58;;;;;;;10.26;100.00;100021.81;4899759;29;20048;-78
2022/05/12 03:39:02;;;;;;;19.65;2.83;;;;;;;10.27;100.00;100020.81;4868352;29;20099;-77
2022/05/12 03:41:27;;;;;;;21.05;2.53;;;;;;;10.21;100.00;100018.94;4899247;29;20546;-78
2022/05/12 03:46:37;;;;;;;18.08;3.13;;;;;;;9.96;100.00;99983.91;4900565;29;20032;-78
2022/05/12 03:49:02;;;;;;;20.70;3.13;;;;;;;10.20;100.00;100017.31;4883709;29;20029;-78
2022/05/12 03:51:27;;;;;;;16.38;2.35;;;;;;;10.22;100.00;100022.47;4867930;29;20124;-78
2022/05/12 03:53:53;;;;;;;17.95;2.88;;;;;;;10.32;100.00;100015.59;4867767;29;20047;-78
2022/05/12 03:56:18;;;;;;;22.10;3.25;;;;;;;10.10;100.00;100004.34;4883257;29;20056;-78
2022/05/12 03:58:44;;;;;;;16.95;2.78;;;;;;;10.25;100.00;100027.41;4867418;29;20040;-78
2022/05/12 04:01:10;;;;;;;19.67;3.00;;;;;;;10.38;100.00;100018.47;4882077;29;20515;-77
2022/05/12 04:03:35;;;;;;;15.20;2.45;;;;;;;10.26;100.00;99965.34;4879803;29;20024;-77
2022/05/12 04:06:04;;;;;;;16.33;2.20;;;;;;;11.20;100.00;100030.00;4894165;29;20039;-78
2022/05/12 04:08:30;;;;;;;15.32;2.60;;;;;;;11.75;100.00;100012.00;4880974;29;20616;-78
2022/05/12 04:10:55;;;;;;;22.00;3.05;;;;;;;11.76;100.00;99943.56;4873395;29;20215;-77
2022/05/12 04:13:21;;;;;;;16.35;2.88;;;;;;;12.69;100.00;100023.16;4879342;29;20060;-77
2022/05/12 04:15:47;;;;;;;15.02;2.55;;;;;;;12.59;100.00;100030.16;4895261;29;20447;-78
2022/05/12 04:18:12;;;;;;;18.80;2.30;;;;;;;12.69;100.00;100001.56;4867101;29;20040;-79
2022/05/12 04:20:38;;;;;;;18.33;2.75;;;;;;;13.01;100.00;100030.91;4895789;29;20103;-78
2022/05/12 04:23:05;;;;;;;21.40;2.53;;;;;;;12.78;100.00;100006.59;4895052;29;20075;-78
2022/05/12 04:25:30;;;;;;;17.13;2.63;;;;;;;12.55;100.00;100048.69;4866695;29;20462;-79
2022/05/12 04:27:57;;;;;;;15.70;2.63;;;;;;;11.75;100.00;100017.38;4890822;29;20119;-79
2022/05/12 04:30:25;;;;;;;20.17;3.10;;;;;;;11.13;100.00;100016.63;4884609;29;20036;-79
2022/05/12 04:32:51;;;;;;;17.50;2.10;;;;;;;11.13;100.00;100048.09;4888542;29;20025;-78
2022/05/12 04:35:18;;;;;;;17.30;2.22;;;;;;;10.88;100.00;100062.38;4880205;29;20468;-79
2022/05/12 04:37:49;;;;;;;15.20;3.28;;;;;;;11.61;100.00;100036.63;4897642;29;20060;-78
2022/05/12 04:40:25;;;;;;;13.85;1.90;;;;;;;11.28;100.00;100068.22;4904895;29;20028;-77
2022/05/12 04:42:52;;;;;;;15.45;2.67;;;;;;;10.92;100.00;100063.59;4897323;29;20028;-79
2022/05/12 04:45:19;;;;;;;14.73;2.03;;;;;;;10.81;100.00;100065.13;4865275;29;20036;-78
2022/05/12 04:47:45;;;;;;;20.00;2.55;;;;;;;10.42;100.00;99995.47;4894502;29;20036;-77
2022/05/12 04:50:32;;;;;;;17.67;3.00;;;;;;;11.42;100.00;100030.41;4896868;29;20095;-78
2022/05/12 04:52:58;;;;;;;18.58;3.03;;;;;;;11.32;100.00;100052.44;4894567;29;20360;-79
2022/05/12 04:55:23;;;;;;;14.90;2.58;;;;;;;10.80;100.00;100000.75;4883562;29;20043;-79
2022/05/12 04:57:52;;;;;;;17.73;3.17;;;;;;;11.79;100.00;100049.25;4897342;29;20032;-78
2022/05/12 05:00:21;;;;;;;17.27;2.72;;;;;;;11.83;100.00;100061.25;4879928;29;20036;-78
2022/05/12 05:02:47;;;;;;;17.15;3.03;;;;;;;11.50;100.00;100062.44;4895543;29;20104;-78
2022/05/12 05:05:13;;;;;;;20.67;2.65;;;;;;;12.17;100.00;100054.41;4879571;29;20036;-78
2022/05/12 05:07:38;;;;;;;16.65;2.80;;;;;;;12.51;100.00;100061.00;4884676;29;20469;-78
2022/05/12 05:10:05;;;;;;;16.13;2.13;;;;;;;11.57;100.00;100020.09;4874379;29;20052;-79
2022/05/12 05:12:31;;;;;;;13.00;2.75;;;;;;;10.99;100.00;99974.69;4862951;29;20179;-78
2022/05/12 05:14:57;;;;;;;22.13;3.38;;;;;;;11.07;100.00;100028.25;4847662;29;20122;-79
2022/05/12 05:17:23;;;;;;;17.98;2.70;;;;;;;11.00;100.00;100049.88;4877626;29;20017;-79
2022/05/12 05:19:49;;;;;;;10.05;1.90;;;;;;;10.79;100.00;100029.56;4878973;29;20021;-80
2022/05/12 05:22:15;;;;;;;19.17;2.60;;;;;;;10.87;100.00;100062.59;4879998;29;20056;-79
2022/05/12 05:24:40;;;;;;;10.32;1.98;;;;;;;10.78;100.00;100019.00;4862837;29;20037;-79
2022/05/12 05:27:06;;;;;;;17.70;2.78;;;;;;;10.62;100.00;100028.41;4862676;29;20141;-80
2022/05/12 05:29:32;;;;;;;17.92;2.60;;;;;;;11.38;100.00;100069.59;4861491;29;20378;-79
2022/05/12 05:31:57;;;;;;;16.15;3.60;;;;;;;11.24;100.00;100095.84;4878128;29;20068;-78
2022/05/12 05:34:23;;;;;;;11.63;1.92;;;;;;;11.38;100.00;100091.97;4863564;29;20051;-79
2022/05/12 05:36:49;;;;;;;13.73;1.88;;;;;;;11.39;100.00;100082.00;4846999;29;20044;-79
2022/05/12 05:39:24;;;;;;;14.90;2.47;;;;;;;11.29;100.00;100101.38;4863764;29;20456;-79
2022/05/12 05:41:56;;;;;;;15.07;1.92;;;;;;;11.36;100.00;100093.25;4862535;29;20028;-78
2022/05/12 05:44:21;;;;;;;13.25;2.17;;;;;;;11.51;100.00;100115.28;4866775;29;20060;-78
2022/05/12 05:46:47;;;;;;;14.02;2.67;;;;;;;11.62;100.00;100095.69;4862796;29;20336;-79
2022/05/12 05:49:12;;;;;;;11.07;1.95;;;;;;;11.48;100.00;100069.91;4866899;29;20535;-79
2022/05/12 05:54:21;;;;;;;12.60;2.13;;;;;;;11.76;100.00;100113.38;4886407;29;20044;-81
2022/05/12 05:56:47;;;;;;;14.77;2.17;;;;;;;11.89;100.00;100120.50;4858636;29;20041;-80
2022/05/12 05:59:13;;;;;;;12.68;2.83;;;;;;;12.07;100.00;100121.56;4858412;29;20052;-80
2022/05/12 06:01:38;;;;;;;16.90;2.35;;;;;;;11.80;100.00;100123.69;4864199;29;20048;-80
2022/05/12 06:04:04;;;;;;;10.63;1.98;;;;;;;11.79;100.00;100093.22;4864273;29;20034;-79
2022/05/12 06:06:29;;;;;;;16.67;2.78;;;;;;;12.04;100.00;100146.28;4850442;29;20029;-79
2022/05/12 06:08:54;;;;;;;14.70;2.53;;;;;;;11.75;100.00;100135.13;4866728;29;20089;-80
2022/05/12 06:11:20;;;;;;;18.80;2.67;;;;;;;11.46;100.00;100123.22;4865384;29;20117;-80
2022/05/12 06:13:47;;;;;;;14.77;2.42;;;;;;;11.36;100.00;100144.44;4865463;29;20082;-79
2022/05/12 06:16:14;;;;;;;15.60;2.95;;;;;;;11.45;100.00;100153.88;4864437;29;20555;-79
2022/05/12 06:18:41;;;;;;;14.73;2.35;;;;;;;11.58;100.00;100144.84;4871075;29;20037;-80
2022/05/12 06:21:12;;;;;;;18.65;2.50;;;;;;;11.87;100.00;100152.25;4849739;29;20029;-79
2022/05/12 06:23:38;;;;;;;13.60;2.03;;;;;;;11.74;100.00;100153.19;4865143;29;20097;-79
2022/05/12 06:26:06;;;;;;;16.27;3.25;;;;;;;11.57;100.00;100121.66;4882818;29;20037;-79
2022/05/12 06:28:31;;;;;;;17.80;2.95;;;;;;;11.74;100.00;100144.28;4880117;29;20060;-79
2022/05/12 06:30:58;;;;;;;14.63;2.58;;;;;;;11.86;100.00;100174.88;4850191;29;20040;-80
2022/05/12 06:33:23;;;;;;;13.80;2.63;;;;;;;11.71;100.00;100185.97;4865743;29;20036;-80
2022/05/12 06:35:50;;;;;;;14.13;2.10;;;;;;;11.85;100.00;100178.59;4866038;29;20112;-80
2022/05/12 06:38:15;;;;;;;16.20;2.22;;;;;;;11.72;100.00;100165.22;4850896;29;20048;-79
2022/05/12 06:40:41;;;;;;;12.05;2.47;;;;;;;11.99;100.00;100182.00;4850527;29;20029;-79
2022/05/12 06:43:08;;;;;;;15.90;2.75;;;;;;;11.63;100.00;100132.38;4882499;29;20077;-80
2022/05/12 06:45:34;;;;;;;16.85;2.75;;;;;;;11.99;100.00;100192.78;4848669;29;20041;-80
2022/05/12 06:48:01;;;;;;;15.30;2.40;;;;;;;11.91;100.00;100201.97;4849354;29;20356;-80
2022/05/12 06:50:29;;;;;;;11.35;2.17;;;;;;;11.58;100.00;100183.38;4865396;29;20063;-80
2022/05/12 06:52:55;;;;;;;19.95;3.08;;;;;;;11.86;100.00;100201.00;4866662;29;20032;-79
2022/05/12 06:55:22;;;;;;;15.52;3.08;;;;;;;11.83;100.00;100212.22;4881683;29;20052;-80
2022/05/12 06:57:48;;;;;;;12.38;2.33;;;;;;;11.82;100.00;100189.81;4881762;29;20044;-80
2022/05/12 07:00:16;;;;;;;14.15;2.42;;;;;;;12.02;100.00;100213.06;4866138;29;20032;-79
2022/05/12 07:02:44;;;;;;;15.63;2.80;;;;;;;11.85;100.00;100191.25;4881600;29;20021;-80
2022/05/12 07:05:11;;;;;;;13.45;1.98;;;;;;;11.84;100.00;100205.75;4882221;29;20036;-79
2022/05/12 07:07:44;;;;;;;7.63;1.98;;;;;;;11.83;100.00;100217.59;4865656;29;20025;-79
2022/05/12 07:10:11;;;;;;;16.35;2.95;;;;;;;12.06;100.00;100236.69;4874397;29;20057;-80
2022/05/12 07:12:53;;;;;;;10.48;2.30;;;;;;;12.08;100.00;100218.41;4881917;29;20036;-80
2022/05/12 07:15:20;;;;;;;19.70;2.22;;;;;;;12.12;100.00;100243.91;4866168;29;20127;-79
2022/05/12 07:17:46;;;;;;;13.13;2.67;;;;;;;12.10;100.00;100247.84;4880783;29;20348;-78
2022/05/12 07:28:27;;;;;;;14.15;2.42;;;;;;;11.87;100.00;100235.00;4850157;29;20105;-79
2022/05/12 07:31:03;;;;;;;16.63;2.30;;;;;;;12.07;100.00;100259.09;4865678;29;20448;-79
2022/05/12 07:33:46;;;;;;;9.75;2.05;;;;;;;12.07;100.00;100280.66;4881810;29;20383;-80
2022/05/12 07:36:32;;;;;;;13.02;2.47;;;;;;;12.03;100.00;100274.06;4865566;29;20036;-80
2022/05/12 07:39:00;;;;;;;12.65;2.38;;;;;;;12.02;100.00;100275.94;4870298;29;20124;-79
2022/05/12 07:41:26;;;;;;;10.63;1.73;;;;;;;11.58;100.00;100204.94;4866576;29;20029;-79
2022/05/12 07:43:52;;;;;;;14.32;2.38;;;;;;;12.11;100.00;100285.38;4878722;29;20027;-80
2022/05/12 07:46:21;;;;;;;10.70;2.58;;;;;;;12.16;100.00;100293.63;4865141;29;20033;-79
2022/05/12 07:48:48;;;;;;;10.38;1.83;;;;;;;12.16;100.00;100293.63;4865245;29;20033;-79
2022/05/12 07:51:15;;;;;;;11.82;2.17;;;;;;;11.88;100.00;100280.59;4849062;29;20353;-80
2022/05/12 07:53:40;;;;;;;14.90;3.15;;;;;;;12.14;100.00;100303.81;4882311;29;20100;-79
2022/05/12 07:56:08;;;;;;;17.05;3.03;;;;;;;12.29;100.00;100319.66;4872791;29;20025;-79
2022/05/12 07:58:34;;;;;;;16.60;2.47;;;;;;;12.12;100.00;100311.31;4880392;29;20572;-79
2022/05/12 08:00:59;;;;;;;15.57;3.08;;;;;;;12.23;100.00;100331.34;4863292;29;20085;-79
2022/05/12 08:03:26;;;;;;;16.08;2.55;;;;;;;12.34;100.00;100333.31;4849296;29;20123;-80
2022/05/12 08:05:52;;;;;;;16.17;2.47;;;;;;;12.26;100.00;100335.47;4879475;29;20029;-79
2022/05/12 08:08:17;;;;;;;14.35;2.45;;;;;;;12.27;100.00;100342.50;4848315;29;20044;-79
2022/05/12 08:10:43;;;;;;;16.33;2.90;;;;;;;12.31;100.00;100338.31;4865726;29;20459;-79
2022/05/12 08:13:14;;;;;;;18.13;3.25;;;;;;;11.92;100.00;100283.69;4864884;29;20049;-79
2022/05/12 08:15:48;;;;;;;11.75;2.50;;;;;;;12.23;100.00;100344.81;4865136;29;20497;-79
2022/05/12 08:18:17;;;;;;;12.85;2.40;;;;;;;12.17;100.00;100343.81;4880860;29;20033;-79
2022/05/12 08:20:44;;;;;;;16.45;3.38;;;;;;;11.82;100.00;100321.06;4870517;29;20024;-79
2022/05/12 08:23:12;;;;;;;13.80;2.65;;;;;;;12.03;100.00;100342.31;4882142;29;20056;-79
2022/05/12 08:25:38;;;;;;;15.50;3.03;;;;;;;12.06;100.00;100359.91;4864261;29;20029;-79
2022/05/12 08:28:04;;;;;;;23.85;3.53;;;;;;;12.01;100.00;100373.22;4853642;29;20513;-79
2022/05/12 08:30:31;;;;;;;12.15;2.28;;;;;;;11.90;100.00;100348.63;4874278;29;20085;-79
2022/05/12 08:32:57;;;;;;;12.32;2.70;;;;;;;12.12;100.00;100373.34;4850218;29;20057;-79
2022/05/12 08:35:24;;;;;;;17.80;3.10;;;;;;;12.06;100.00;100355.34;4845073;29;20038;-80
2022/05/12 08:37:49;;;;;;;14.85;2.40;;;;;;;12.32;100.00;100383.16;4858435;29;20037;-79
2022/05/12 08:40:34;;;;;;;20.08;3.67;;;;;;;11.90;100.00;100310.06;4864515;29;20128;-79
2022/05/12 08:43:10;;;;;;;24.70;3.83;;;;;;;12.37;100.00;100362.53;4862992;29;20363;-79
2022/05/12 08:45:36;;;;;;;27.38;3.40;;;;;;;12.41;100.00;100404.22;4881091;29;20029;-80
2022/05/12 08:48:02;;;;;;;15.63;2.97;;;;;;;12.36;100.00;100376.25;4881539;29;20352;-79
2022/05/12 08:50:31;;;;;;;25.95;3.30;;;;;;;12.29;100.00;100380.91;4864724;29;20612;-80
2022/05/12 08:53:29;;;;;;;22.83;4.70;;;;;;;12.58;100.00;100409.91;4863486;29;20024;-79
2022/05/12 08:55:57;;;;;;;24.25;4.03;;;;;;;12.28;100.00;100392.72;4879097;29;20037;-80
2022/05/12 08:58:35;;;;;;;12.98;2.35;;;;;;;12.02;100.00;100374.84;4879643;29;20048;-80
2022/05/12 09:01:23;;;;;;;19.10;3.90;;;;;;;12.30;100.00;100379.84;4866007;29;20033;-79
2022/05/12 09:04:23;;;;;;;14.52;2.58;;;;;;;12.34;100.00;100443.09;4883125;29;20025;-79
2022/05/12 09:07:14;;;;;;;20.70;3.75;;;;;;;12.36;100.00;100428.34;4879935;29;20104;-80
2022/05/12 09:09:52;;;;;;;16.75;3.00;;;;;;;12.55;100.00;100456.22;4853842;29;20065;-79
2022/05/12 09:12:39;;;;;;;23.02;3.95;;;;;;;12.40;100.00;100455.72;4845168;29;20045;-79
2022/05/12 09:15:12;;;;;;;15.68;3.00;;;;;;;12.50;100.00;100450.66;4857456;29;20044;-79
2022/05/12 09:17:58;;;;;;;17.27;3.35;;;;;;;12.52;100.00;100437.78;4863160;29;20035;-79
2022/05/12 09:20:26;;;;;;;18.80;3.45;;;;;;;12.75;100.00;100452.50;4879374;29;20036;-78
2022/05/12 09:22:52;;;;;;;19.23;3.00;;;;;;;12.69;100.00;100429.94;4878203;29;20096;-79
2022/05/12 09:25:34;;;;;;;21.15;4.00;;;;;;;12.89;100.00;100445.94;4863464;29;20032;-79
2022/05/12 09:28:18;;;;;;;12.45;2.63;;;;;;;12.81;100.00;100435.41;4879071;29;20029;-79
2022/05/12 09:30:43;;;;;;;20.63;4.07;;;;;;;12.96;100.00;100444.00;4882496;29;20048;-79
2022/05/12 09:33:09;;;;;;;16.88;3.33;;;;;;;12.86;100.00;100428.31;4883373;29;20462;-78
2022/05/12 09:35:35;;;;;;;18.25;3.25;;;;;;;12.72;100.00;100429.50;4848779;29;20051;-79
2022/05/12 09:38:23;;;;;;;16.25;2.80;;;;;;;12.80;100.00;100455.38;4871786;29;20455;-79
2022/05/12 09:40:48;;;;;;;18.83;3.28;;;;;;;12.85;100.00;100469.88;4852494;29;20041;-79
2022/05/12 09:43:33;;;;;;;18.35;3.35;;;;;;;12.73;100.00;100482.44;4863689;29;20060;-79
2022/05/12 09:46:29;;;;;;;24.90;3.97;;;;;;;12.79;100.00;100469.94;4861486;29;20035;-79
2022/05/12 09:48:54;;;;;;;;;;;;;;;12.83;100.00;100487.31;4855656;29;20037;-79
2022/05/12 09:51:24;;;;;;;17.60;3.25;;;;;;;12.70;100.00;100451.28;4845562;29;19924;-79
2022/05/12 09:53:53;;;;;;;17.48;2.75;;;;;;;12.73;100.00;100498.63;4863141;29;20029;-79
2022/05/12 09:56:32;;;;;;;21.48;4.50;;;;;;;12.71;100.00;100516.91;4847834;29;20059;-79
2022/05/12 09:59:17;;;;;;;19.17;3.33;;;;;;;12.49;100.00;100492.19;4862981;29;20044;-79
2022/05/12 10:01:56;;;;;;;19.73;3.05;;;;;;;12.60;100.00;100499.56;4878304;29;20039;-79
2022/05/12 10:10:17;;;;;;;20.42;3.40;;;;;;;12.56;100.00;100560.44;4886919;29;20550;-79
2022/05/12 10:13:08;;;;;;;23.13;4.72;;;;;;;12.72;100.00;100564.47;4880468;29;20050;-80
2022/05/12 10:15:39;;;;;;;17.95;4.00;;;;;;;12.74;100.00;100538.06;4893547;29;20036;-79
2022/05/12 10:18:28;;;;;;;18.30;3.53;;;;;;;13.00;100.00;100576.72;4880263;29;20403;-79
2022/05/12 10:20:59;;;;;;;21.83;3.10;;;;;;;12.93;100.00;100569.50;4881052;29;20130;-79
2022/05/12 10:23:54;;;;;;;19.90;4.25;;;;;;;13.01;100.00;100578.34;4895627;29;20025;-80
2022/05/12 10:26:35;;;;;;;18.75;3.35;;;;;;;12.76;100.00;100576.47;4896375;29;20047;-79
2022/05/12 10:29:20;;;;;;;14.95;3.03;;;;;;;12.76;100.00;100562.16;4895954;29;20080;-79
2022/05/12 10:32:16;;;;;;;17.83;3.42;;;;;;;13.03;100.00;100590.59;4881366;29;20452;-79
2022/05/12 10:35:19;;;;;;;15.90;3.45;;;;;;;12.91;100.00;100593.19;4899611;29;20048;-79
2022/05/12 10:38:09;;;;;;;21.85;3.83;;;;;;;13.04;100.00;100605.75;4901021;29;20040;-79
2022/05/12 10:40:55;;;;;;;17.38;3.35;;;;;;;12.89;100.00;100597.16;4885067;29;20056;-79
2022/05/12 10:43:57;;;;;;;19.65;3.83;;;;;;;13.01;100.00;100608.06;4907610;29;20107;-79
2022/05/12 10:46:37;;;;;;;20.55;4.03;;;;;;;13.01;100.00;100600.78;4900842;29;20020;-79
2022/05/12 10:49:10;;;;;;;26.08;4.40;;;;;;;12.70;100.00;100575.47;4885277;29;20047;-79
2022/05/12 10:52:01;;;;;;;17.55;2.97;;;;;;;12.90;100.00;100580.72;4901301;29;20051;-79
2022/05/12 10:54:42;;;;;;;15.75;3.00;;;;;;;12.97;100.00;100613.09;4900941;29;20035;-79
2022/05/12 10:57:35;;;;;;;18.70;2.95;;;;;;;13.10;100.00;100602.16;4899457;29;20028;-79
2022/05/12 11:00:24;;;;;;;23.70;3.58;;;;;;;13.22;100.00;100609.56;4900650;29;20119;-79
2022/05/12 11:03:04;;;;;;;18.83;3.22;;;;;;;13.10;100.00;100612.16;4883708;29;20051;-79
2022/05/12 11:05:36;;;;;;;16.15;3.30;;;;;;;12.91;100.00;100603.16;4900547;29;20039;-80
2022/05/12 11:08:23;;;;;;;19.65;3.80;;;;;;;13.12;100.00;100610.91;4901707;29;20063;-80
2022/05/12 11:10:55;;;;;;;16.42;2.90;;;;;;;13.25;100.00;100630.78;4900181;29;20045;-79
2022/05/12 11:13:28;;;;;;;14.75;2.88;;;;;;;13.15;100.00;100623.16;4900859;29;20115;-79
2022/05/12 11:16:19;;;;;;;17.00;2.75;;;;;;;13.33;100.00;100635.91;4892620;29;20021;-80
2022/05/12 11:18:51;;;;;;;17.20;3.05;;;;;;;13.13;100.00;100627.94;4901285;29;20032;-79
2022/05/12 11:21:27;;;;;;;13.48;3.05;;;;;;;13.25;100.00;100619.97;4898762;29;20043;-79
2022/05/12 11:24:18;;;;;;;19.02;3.65;;;;;;;13.11;100.00;100624.59;4883575;29;20021;-80
2022/05/12 11:26:49;;;;;;;13.70;2.40;;;;;;;13.30;100.00;100633.63;4898827;29;20025;-79
2022/05/12 11:29:43;;;;;;;16.00;3.08;;;;;;;12.99;100.00;100588.56;4899595;29;20067;-80
2022/05/12 11:32:33;;;;;;;20.73;3.80;;;;;;;13.13;100.00;100617.94;4892002;29;20032;-79
2022/05/12 11:35:11;;;;;;;14.45;2.65;;;;;;;13.19;100.00;100639.75;4884755;29;20147;-80
2022/05/12 11:38:00;;;;;;;22.73;4.05;;;;;;;13.07;100.00;100621.53;4883795;29;20096;-79
2022/05/12 11:40:43;;;;;;;18.13;3.20;;;;;;;13.31;100.00;100638.84;4900699;29;20056;-80
2022/05/12 11:46:57;;;;;;;17.00;2.78;;;;;;;13.15;100.00;100642.88;4894240;29;20068;-79
2022/05/12 11:49:32;;;;;;;12.40;2.80;;;;;;;13.10;100.00;100629.19;4890609;29;20032;-80